Time;durP1;ratioP1;P1;durP2;ratioP2;P2;SDS_P1;SDS_P2;PMS_P1;PMS_P2;Temp;Humidity;BMP_temperature;BMP_pressure;BME280_temperature;BME280_humidity;BME280_pressure;Samples;Min_cycle;Max_cycle;Signal;HPM_P1;HPM_P2
2024/01/04 00:02:25;;;;;;;5.75;2.85;;;;;;;-24.27;75.59;101206.00;10422412;28;20569;-68
2024/01/04 00:07:28;;;;;;;6.68;3.15;;;;;;;-24.28;75.28;101214.69;10427281;28;20045;-68
2024/01/04 00:12:30;;;;;;;6.00;2.70;;;;;;;-24.36;75.12;101196.78;10402470;28;20544;-68
2024/01/04 00:17:33;;;;;;;4.47;2.30;;;;;;;-24.29;76.01;101198.31;10409434;28;20040;-68
2024/01/04 00:22:36;;;;;;;6.65;2.25;;;;;;;-24.27;75.27;101188.69;10443256;28;20083;-68
2024/01/04 00:27:39;;;;;;;4.28;2.20;;;;;;;-24.18;75.06;101183.22;10441699;28;20465;-68
2024/01/04 00:32:43;;;;;;;6.45;2.53;;;;;;;-24.25;75.30;101179.13;10440216;28;20044;-68
2024/01/04 00:37:45;;;;;;;5.28;2.40;;;;;;;-24.35;74.90;101169.09;10439874;28;20037;-68
2024/01/04 00:42:48;;;;;;;4.55;2.25;;;;;;;-24.33;75.05;101165.56;10443040;28;20045;-67
2024/01/04 00:47:50;;;;;;;3.20;2.03;;;;;;;-24.33;75.04;101175.94;10442367;28;20076;-67
2024/01/04 00:52:52;;;;;;;4.63;1.90;;;;;;;-24.37;74.96;101153.59;10432145;28;20128;-67
2024/01/04 00:57:57;;;;;;;2.95;2.20;;;;;;;-24.40;75.13;101158.88;10424575;28;20037;-69
2024/01/04 01:03:00;;;;;;;5.95;2.58;;;;;;;-24.44;75.32;101164.22;10429009;28;20048;-69
2024/01/04 01:08:02;;;;;;;5.38;2.90;;;;;;;-24.47;74.86;101167.72;10413611;28;20040;-67
2024/01/04 01:13:05;;;;;;;5.22;2.60;;;;;;;-24.50;74.97;101167.84;10433347;28;20041;-67
2024/01/04 01:18:08;;;;;;;4.63;2.72;;;;;;;-24.59;74.96;101162.94;10439835;28;20048;-68
2024/01/04 01:23:10;;;;;;;7.32;2.33;;;;;;;-24.49;75.22;101153.97;10437596;28;20038;-68
2024/01/04 01:28:13;;;;;;;6.57;2.80;;;;;;;-24.55;74.67;101155.03;10438277;28;20532;-68
2024/01/04 01:33:16;;;;;;;5.28;2.67;;;;;;;-24.65;75.00;101155.34;10441264;28;20045;-69
2024/01/04 01:38:18;;;;;;;4.65;2.58;;;;;;;-24.72;74.90;101157.28;10434419;28;20461;-68
2024/01/04 01:43:22;;;;;;;4.47;2.20;;;;;;;-24.65;75.33;101148.41;10440630;28;20049;-69
2024/01/04 01:48:27;;;;;;;5.38;2.83;;;;;;;-24.65;75.51;101147.56;10438551;28;20053;-68
2024/01/04 01:53:29;;;;;;;4.20;3.03;;;;;;;-24.73;74.88;101145.22;10412646;28;20061;-68
2024/01/04 01:58:32;;;;;;;6.25;2.35;;;;;;;-24.70;75.43;101142.53;10428982;28;20048;-68
2024/01/04 02:03:34;;;;;;;5.18;2.65;;;;;;;-24.69;75.07;101143.38;10423658;28;20049;-68
2024/01/04 02:08:37;;;;;;;4.97;2.85;;;;;;;-24.67;75.00;101131.22;10412078;28;20049;-67
2024/01/04 02:13:39;;;;;;;6.93;2.72;;;;;;;-24.76;74.83;101132.34;10406948;28;20033;-68
2024/01/04 02:18:41;;;;;;;6.38;3.33;;;;;;;-24.83;75.27;101144.63;10432047;28;20050;-67
2024/01/04 02:23:44;;;;;;;6.20;3.47;;;;;;;-24.73;75.00;101134.00;10437849;28;20056;-69
2024/01/04 02:28:46;;;;;;;5.35;3.25;;;;;;;-24.74;74.83;101132.31;10446230;28;20111;-69
2024/01/04 02:33:48;;;;;;;7.18;3.15;;;;;;;-24.83;74.98;101136.00;10422953;28;20033;-67
2024/01/04 02:38:51;;;;;;;6.82;3.50;;;;;;;-24.90;74.93;101148.31;10443859;28;20049;-69
2024/01/04 02:43:54;;;;;;;5.97;3.33;;;;;;;-25.09;75.07;101144.59;10437745;28;20034;-68
2024/01/04 02:48:57;;;;;;;8.27;3.78;;;;;;;-25.08;74.95;101126.41;10424741;28;20057;-68
2024/01/04 02:53:59;;;;;;;7.20;3.63;;;;;;;-25.14;74.77;101124.00;10446032;28;20029;-68
2024/01/04 02:59:07;;;;;;;6.93;3.50;;;;;;;-25.16;74.81;101120.63;10435272;28;20038;-67
2024/01/04 03:04:10;;;;;;;5.37;3.50;;;;;;;-25.18;75.12;101121.53;10445309;28;20037;-68
2024/01/04 03:09:13;;;;;;;6.28;3.65;;;;;;;-25.24;74.65;101112.22;10427052;28;20045;-69
2024/01/04 03:14:16;;;;;;;5.07;3.03;;;;;;;-25.14;74.43;101108.47;10417289;28;20045;-68
2024/01/04 03:19:18;;;;;;;8.73;3.22;;;;;;;-25.22;74.54;101101.81;10407144;28;20521;-68
2024/01/04 03:24:20;;;;;;;5.60;3.13;;;;;;;-25.03;74.15;101100.38;10406089;28;20044;-67
2024/01/04 03:29:23;;;;;;;6.72;3.67;;;;;;;-25.15;74.40;101100.75;10428519;28;20037;-68
2024/01/04 03:34:28;;;;;;;4.32;3.00;;;;;;;-25.07;74.12;101098.78;10428058;28;20044;-68
2024/01/04 03:39:31;;;;;;;6.43;3.30;;;;;;;-24.92;74.41;101081.91;10427380;28;20533;-67
2024/01/04 03:44:33;;;;;;;7.65;3.72;;;;;;;-24.96;74.83;101101.03;10418863;28;20533;-69
2024/01/04 03:49:35;;;;;;;6.55;3.40;;;;;;;-24.85;75.15;101096.34;10412311;28;20433;-68
2024/01/04 03:54:38;;;;;;;8.02;4.28;;;;;;;-24.90;75.73;101080.97;10435453;28;20048;-68
2024/01/04 03:59:43;;;;;;;8.13;4.30;;;;;;;-24.92;75.18;101087.09;10412342;28;20042;-68
2024/01/04 04:04:45;;;;;;;6.80;4.10;;;;;;;-24.98;75.59;101085.53;10413401;28;20093;-69
2024/01/04 04:09:47;;;;;;;7.82;3.88;;;;;;;-24.89;76.14;101087.00;10436711;28;20037;-68
2024/01/04 04:14:51;;;;;;;5.45;2.92;;;;;;;-24.79;75.13;101099.63;10418622;28;20038;-68
2024/01/04 04:19:54;;;;;;;6.25;3.72;;;;;;;-24.89;75.94;101095.59;10435955;28;20041;-68
2024/01/04 04:24:58;;;;;;;6.10;3.33;;;;;;;-24.89;75.63;101107.72;10417126;28;20049;-68
2024/01/04 04:30:01;;;;;;;4.13;2.60;;;;;;;-25.00;75.58;101100.28;10426940;28;20033;-68
2024/01/04 04:35:03;;;;;;;3.95;2.83;;;;;;;-24.99;75.15;101104.56;10435777;28;20037;-68
2024/01/04 04:40:06;;;;;;;4.20;2.20;;;;;;;-25.02;75.35;101120.19;10426182;28;20053;-68
2024/01/04 04:45:09;;;;;;;5.68;2.67;;;;;;;-25.25;75.13;101099.31;10404591;28;20064;-69
2024/01/04 04:50:13;;;;;;;7.47;3.17;;;;;;;-25.20;75.19;101110.38;10431815;28;20265;-68
2024/01/04 04:55:15;;;;;;;3.60;2.53;;;;;;;-25.25;75.03;101100.16;10440509;28;20588;-68
2024/01/04 05:00:20;;;;;;;4.30;2.70;;;;;;;-25.16;74.53;101104.22;10440431;28;20509;-69
2024/01/04 05:05:22;;;;;;;6.30;2.72;;;;;;;-25.11;74.99;101110.13;10434038;28;20045;-67
2024/01/04 05:10:24;;;;;;;4.60;2.60;;;;;;;-24.95;74.60;101118.25;10410080;28;20034;-68
2024/01/04 05:15:27;;;;;;;5.05;2.58;;;;;;;-24.98;74.84;101106.25;10419497;28;20049;-67
2024/01/04 05:20:29;;;;;;;4.85;3.03;;;;;;;-24.79;75.23;101110.00;10404895;28;20426;-68
2024/01/04 05:25:32;;;;;;;4.72;2.75;;;;;;;-24.76;74.73;101130.63;10403480;28;20041;-68
2024/01/04 05:30:35;;;;;;;4.05;2.53;;;;;;;-24.76;74.99;101112.47;10431746;28;20461;-67
2024/01/04 05:35:37;;;;;;;6.18;2.80;;;;;;;-24.76;74.64;101114.22;10433291;28;20044;-67
2024/01/04 05:40:39;;;;;;;5.30;3.03;;;;;;;-24.83;75.04;101116.13;10424653;28;20041;-67
2024/01/04 05:45:42;;;;;;;4.38;2.70;;;;;;;-24.79;75.66;101107.41;10423760;28;20053;-69
2024/01/04 05:50:44;;;;;;;4.47;2.78;;;;;;;-24.89;75.47;101112.91;10449899;28;20501;-68
2024/01/04 05:55:46;;;;;;;3.67;2.47;;;;;;;-24.89;75.09;101110.31;10425968;28;20057;-69
2024/01/04 06:00:51;;;;;;;3.78;1.85;;;;;;;-24.87;75.28;101116.28;10436846;28;20045;-67
2024/01/04 06:05:53;;;;;;;4.85;2.60;;;;;;;-24.97;75.53;101097.59;10437676;28;20159;-68
2024/01/04 06:10:55;;;;;;;4.25;1.70;;;;;;;-24.95;75.71;101108.75;10417754;28;20034;-67
2024/01/04 06:15:57;;;;;;;3.20;2.00;;;;;;;-24.93;75.51;101099.19;10430625;28;20041;-67
2024/01/04 06:21:00;;;;;;;1.55;1.45;;;;;;;-24.86;75.60;101086.91;10416374;28;20048;-67
2024/01/04 06:26:02;;;;;;;4.13;2.63;;;;;;;-24.79;75.73;101110.00;10433549;28;20540;-67
2024/01/04 06:31:05;;;;;;;1.20;1.10;;;;;;;-24.77;76.37;101102.16;10446949;28;20056;-67
2024/01/04 06:36:07;;;;;;;3.95;2.03;;;;;;;-24.67;76.14;101094.94;10442446;28;20454;-67
2024/01/04 06:41:10;;;;;;;4.35;2.00;;;;;;;-24.53;76.56;101105.72;10447930;28;20044;-66
2024/01/04 06:46:15;;;;;;;4.35;1.83;;;;;;;-24.55;76.40;101105.78;10444366;28;20049;-67
2024/01/04 06:51:17;;;;;;;5.60;2.33;;;;;;;-24.53;77.36;101110.91;10428586;28;20042;-67
2024/01/04 06:56:19;;;;;;;3.17;1.88;;;;;;;-24.47;77.32;101095.16;10440877;28;20125;-67
2024/01/04 07:01:22;;;;;;;2.17;1.45;;;;;;;-24.44;76.44;101100.28;10444582;28;20056;-67
2024/01/04 07:06:25;;;;;;;5.22;2.70;;;;;;;-24.41;76.90;101110.53;10420656;28;20547;-67
2024/01/04 07:11:30;;;;;;;5.32;3.33;;;;;;;-24.50;77.08;101121.19;10438249;28;20452;-67
2024/01/04 07:16:33;;;;;;;3.83;2.45;;;;;;;-24.47;76.87;101111.56;10433994;28;20041;-66
2024/01/04 07:21:36;;;;;;;5.00;2.25;;;;;;;-24.41;77.05;101109.69;10445595;28;20057;-68
2024/01/04 07:26:38;;;;;;;9.18;3.33;;;;;;;-24.52;76.90;101125.56;10437831;28;20064;-67
2024/01/04 07:31:42;;;;;;;5.50;2.95;;;;;;;-24.56;77.29;101118.78;10431081;28;20040;-68
2024/01/04 07:36:45;;;;;;;6.35;3.35;;;;;;;-24.43;77.14;101117.53;10436222;28;20049;-66
2024/01/04 07:41:47;;;;;;;5.30;3.65;;;;;;;-23.81;77.01;101122.34;10440891;28;20085;-68
2024/01/04 07:46:50;;;;;;;7.07;3.88;;;;;;;-22.40;74.58;101115.34;10406326;28;20049;-67
2024/01/04 07:51:53;;;;;;;7.05;3.42;;;;;;;-22.76;73.59;101120.22;10439053;28;20045;-67
2024/01/04 07:56:55;;;;;;;8.30;3.03;;;;;;;-22.23;71.94;101123.31;10435589;28;20034;-67
2024/01/04 08:01:58;;;;;;;4.47;2.97;;;;;;;-21.27;69.68;101123.59;10425458;28;20042;-67
2024/01/04 08:07:01;;;;;;;5.35;3.00;;;;;;;-21.14;66.93;101120.34;10437242;28;20033;-68
2024/01/04 08:12:04;;;;;;;3.80;2.47;;;;;;;-20.79;65.93;101126.59;10423954;28;20048;-68
2024/01/04 08:17:10;;;;;;;6.55;2.17;;;;;;;-21.69;65.82;101122.78;10385945;28;20033;-67
2024/01/04 08:22:13;;;;;;;5.43;2.75;;;;;;;-20.60;65.77;101130.97;10407959;28;20136;-67
2024/01/04 08:27:18;;;;;;;4.30;2.00;;;;;;;-19.95;63.26;101117.34;10430510;28;20413;-67
2024/01/04 08:32:21;;;;;;;4.70;2.28;;;;;;;-21.54;64.16;101131.69;10429040;28;20572;-67
2024/01/04 08:37:23;;;;;;;9.60;2.65;;;;;;;-22.30;65.27;101129.69;10433834;28;20395;-67
2024/01/04 08:42:25;;;;;;;2.03;1.52;;;;;;;-23.87;68.31;101127.75;10420589;28;20422;-69
2024/01/04 08:47:28;;;;;;;5.57;2.08;;;;;;;-24.30;71.26;101143.88;10437689;28;20049;-67
2024/01/04 08:52:30;;;;;;;6.35;2.72;;;;;;;-24.40;72.90;101121.75;10421108;28;20038;-67
2024/01/04 08:57:33;;;;;;;7.53;2.33;;;;;;;-24.52;73.32;101131.59;10428665;28;20387;-67
2024/01/04 09:02:36;;;;;;;6.93;2.25;;;;;;;-24.48;73.70;101128.00;10423541;28;20045;-67
2024/01/04 09:07:38;;;;;;;7.82;2.83;;;;;;;-24.48;74.17;101128.00;10434824;28;20048;-67
2024/01/04 09:12:42;;;;;;;4.30;1.92;;;;;;;-24.32;74.53;101125.78;10430635;28;20038;-67
2024/01/04 09:17:46;;;;;;;6.75;3.00;;;;;;;-24.21;75.03;101123.66;10437736;28;20025;-67
2024/01/04 09:22:48;;;;;;;6.90;3.22;;;;;;;-24.27;75.58;101131.66;10411597;28;20050;-67
2024/01/04 09:27:50;;;;;;;3.17;1.60;;;;;;;-24.18;75.40;101120.97;10439252;28;20037;-67
2024/01/04 09:32:53;;;;;;;5.78;2.67;;;;;;;-24.18;75.50;101107.16;10440860;28;20556;-68
2024/01/04 09:37:55;;;;;;;2.88;1.85;;;;;;;-24.11;76.06;101107.81;10425343;28;20044;-68
2024/01/04 09:42:57;;;;;;;7.82;2.78;;;;;;;-24.09;75.57;101106.03;10419507;28;20045;-67
2024/01/04 09:48:00;;;;;;;5.03;2.70;;;;;;;-24.05;76.48;101098.09;10416616;28;20049;-68
2024/01/04 09:53:03;;;;;;;4.55;2.53;;;;;;;-24.09;76.32;101082.69;10417415;28;20033;-67
2024/01/04 09:58:09;;;;;;;7.45;3.50;;;;;;;-24.02;76.21;101072.03;10410866;28;20037;-68
2024/01/04 10:03:12;;;;;;;11.40;3.65;;;;;;;-23.96;76.63;101083.94;10434045;28;20429;-68
2024/01/04 10:08:29;;;;;;;5.18;3.00;;;;;;;-23.94;76.59;101085.63;10440061;28;20052;-68
2024/01/04 10:13:32;;;;;;;4.07;1.73;;;;;;;-24.10;77.13;101068.88;10426740;28;20044;-66
2024/01/04 10:18:35;;;;;;;5.90;2.08;;;;;;;-24.10;77.21;101079.25;10447928;28;20037;-68
2024/01/04 10:23:38;;;;;;;10.48;2.88;;;;;;;-24.02;76.79;101079.81;10427198;28;20073;-67
2024/01/04 10:28:40;;;;;;;3.58;2.00;;;;;;;-24.02;77.26;101069.44;10407129;28;20048;-68
2024/01/04 10:33:43;;;;;;;3.00;1.15;;;;;;;-23.93;77.58;101060.53;10411178;28;20049;-67
2024/01/04 10:38:45;;;;;;;3.17;1.65;;;;;;;-23.84;77.63;101066.22;10428051;28;20049;-68
2024/01/04 10:43:48;;;;;;;8.50;3.45;;;;;;;-23.78;77.50;101061.69;10430621;28;20068;-67
2024/01/04 10:48:51;;;;;;;5.07;2.83;;;;;;;-23.64;77.36;101068.09;10409942;28;20061;-68
2024/01/04 10:53:54;;;;;;;4.38;2.28;;;;;;;-23.66;77.70;101075.09;10420016;28;20038;-68
2024/01/04 10:58:58;;;;;;;7.47;2.60;;;;;;;-23.61;78.07;101078.38;10442054;28;20469;-68
2024/01/04 11:04:01;;;;;;;5.03;2.38;;;;;;;-23.56;78.00;101057.47;10440509;28;20045;-69
2024/01/04 11:09:04;;;;;;;5.18;2.67;;;;;;;-23.58;78.37;101065.31;10429852;28;20038;-67
2024/01/04 11:14:06;;;;;;;4.43;2.42;;;;;;;-23.57;78.52;101059.22;10412992;28;20042;-67
2024/01/04 11:19:35;;;;;;;3.80;1.88;;;;;;;-23.47;78.38;101048.44;10411407;28;20042;-68
2024/01/04 11:24:59;;;;;;;7.88;4.72;;;;;;;-23.37;78.73;101049.81;10438037;28;20417;-66
2024/01/04 11:30:04;;;;;;;8.82;2.47;;;;;;;-23.29;78.45;101047.78;10427274;28;20796;-65
2024/01/04 11:35:10;;;;;;;3.08;2.10;;;;;;;-23.29;78.36;101065.94;10443674;28;20052;-65
2024/01/04 11:40:12;;;;;;;4.63;2.20;;;;;;;-23.27;78.32;101051.16;10441197;28;20044;-66
2024/01/04 11:45:16;;;;;;;5.15;2.35;;;;;;;-23.30;78.38;101059.91;10443597;28;20045;-68
2024/01/04 11:50:21;;;;;;;1.55;1.17;;;;;;;-23.22;78.41;101046.66;10412203;28;20049;-66
2024/01/04 11:55:25;;;;;;;1.45;1.15;;;;;;;-23.16;78.50;101049.00;10434013;28;20044;-65
2024/01/04 12:00:38;;;;;;;1.63;1.00;;;;;;;-23.05;78.29;101064.22;10430583;28;20041;-66
2024/01/04 12:05:46;;;;;;;5.20;2.60;;;;;;;-23.01;78.74;101056.22;10431188;28;20140;-67
2024/01/04 12:10:56;;;;;;;5.25;1.80;;;;;;;-22.94;78.31;101072.41;10434572;28;20041;-67
2024/01/04 12:15:59;;;;;;;3.33;1.65;;;;;;;-22.89;78.41;101067.06;10444217;28;20203;-66
2024/01/04 12:21:03;;;;;;;0.45;0.43;;;;;;;-22.84;78.16;101065.97;10437723;28;20040;-66
2024/01/04 12:26:06;;;;;;;1.52;1.08;;;;;;;-22.80;78.39;101061.47;10439722;28;20037;-67
2024/01/04 12:31:09;;;;;;;1.75;0.93;;;;;;;-22.82;78.65;101068.50;10421856;28;20045;-66
2024/01/04 12:36:18;;;;;;;3.92;2.22;;;;;;;-22.77;78.82;101066.53;10439571;28;20507;-66
2024/01/04 12:41:23;;;;;;;3.08;1.38;;;;;;;-22.72;79.79;101055.09;10424298;28;20537;-66
2024/01/04 12:46:27;;;;;;;2.67;1.27;;;;;;;-22.69;79.56;101059.31;10425707;28;20046;-67
2024/01/04 12:51:29;;;;;;;4.57;2.30;;;;;;;-22.66;79.12;101056.59;10424137;28;20029;-65
2024/01/04 12:56:32;;;;;;;1.90;1.42;;;;;;;-22.59;79.34;101058.00;10444007;28;20041;-66
2024/01/04 13:01:34;;;;;;;1.73;1.38;;;;;;;-22.58;79.44;101041.50;10437979;28;20045;-66
2024/01/04 13:06:39;;;;;;;2.47;1.02;;;;;;;-22.49;79.24;101046.34;10443100;28;20046;-65
2024/01/04 13:11:41;;;;;;;4.78;1.92;;;;;;;-22.47;79.16;101028.09;10443288;28;20033;-66
2024/01/04 13:16:44;;;;;;;1.10;0.98;;;;;;;-22.42;79.12;101036.53;10443508;28;20041;-66
2024/01/04 13:21:46;;;;;;;1.17;0.90;;;;;;;-22.37;79.97;101045.88;10443109;28;20037;-66
2024/01/04 13:26:51;;;;;;;6.10;2.15;;;;;;;-22.40;79.87;101058.97;10442738;28;20403;-66
2024/01/04 13:31:53;;;;;;;4.47;1.73;;;;;;;-22.46;79.71;101037.56;10442445;28;20045;-66
2024/01/04 13:36:56;;;;;;;1.10;0.90;;;;;;;-22.44;79.69;101028.81;10442892;28;20519;-65
2024/01/04 13:41:59;;;;;;;1.92;1.40;;;;;;;-22.41;79.22;101041.66;10442636;28;20049;-65
2024/01/04 13:47:01;;;;;;;3.10;1.55;;;;;;;-22.37;79.60;101045.03;10442647;28;20049;-65
2024/01/04 13:52:06;;;;;;;4.57;2.13;;;;;;;-22.43;79.48;101040.91;10443878;28;20418;-65
2024/01/04 13:57:08;;;;;;;0.85;0.73;;;;;;;-22.45;79.49;101032.31;10450194;28;20040;-65
2024/01/04 14:02:10;;;;;;;2.17;1.50;;;;;;;-22.46;79.03;101024.56;10450818;28;20037;-66
2024/01/04 14:07:13;;;;;;;0.47;0.47;;;;;;;-22.49;79.61;101015.16;10450217;28;20037;-65
2024/01/04 14:12:16;;;;;;;5.43;2.83;;;;;;;-22.51;79.32;101027.38;10450491;28;20041;-65
2024/01/04 14:17:20;;;;;;;1.75;0.95;;;;;;;-22.54;79.39;101021.47;10449936;28;20033;-65
2024/01/04 14:22:23;;;;;;;2.42;1.58;;;;;;;-22.55;79.46;101028.41;10448544;28;20452;-67
2024/01/04 14:27:27;;;;;;;2.90;2.70;;;;;;;-22.56;80.22;101024.09;10449386;28;20048;-65
2024/01/04 14:32:31;;;;;;;4.35;1.75;;;;;;;-22.48;79.73;101027.25;10448636;28;20045;-66
2024/01/04 14:37:38;;;;;;;3.83;1.77;;;;;;;-22.45;79.88;101023.66;10448562;28;20050;-65
2024/01/04 14:42:41;;;;;;;3.13;2.30;;;;;;;-22.50;80.02;101017.81;10449137;28;20045;-65
2024/01/04 14:47:44;;;;;;;0.70;0.70;;;;;;;-22.49;79.80;101022.94;10447509;28;20046;-65
2024/01/04 14:52:47;;;;;;;6.53;2.58;;;;;;;-22.49;80.06;101035.09;10430818;28;20037;-65
2024/01/04 14:57:49;;;;;;;6.30;2.30;;;;;;;-22.55;79.84;101036.22;10448695;28;20035;-66
2024/01/04 15:02:51;;;;;;;3.53;1.40;;;;;;;-22.61;80.05;101023.44;10446901;28;20850;-65
2024/01/04 15:07:54;;;;;;;3.22;1.80;;;;;;;-22.61;80.17;101036.44;10448336;28;20437;-65
2024/01/04 15:12:56;;;;;;;1.02;0.90;;;;;;;-22.65;79.90;101027.06;10447681;28;20044;-66
2024/01/04 15:17:58;;;;;;;3.78;1.30;;;;;;;-22.63;79.51;101031.31;10447649;28;20030;-66
2024/01/04 15:23:03;;;;;;;2.10;1.88;;;;;;;-22.70;79.57;101035.06;10448007;28;20044;-66
2024/01/04 15:28:09;;;;;;;3.70;1.08;;;;;;;-22.79;79.83;101063.16;10447050;28;20477;-65
2024/01/04 15:33:11;;;;;;;3.20;1.70;;;;;;;-22.77;79.88;101041.41;10447986;28;20048;-65
2024/01/04 15:38:14;;;;;;;1.65;1.08;;;;;;;-22.76;79.97;101029.25;10447994;28;20045;-66
2024/01/04 15:43:17;;;;;;;0.43;0.43;;;;;;;-22.71;80.08;101051.56;10445593;28;20044;-66
2024/01/04 15:48:22;;;;;;;1.52;0.95;;;;;;;-22.72;79.98;101041.25;10446857;28;20065;-65
2024/01/04 15:53:24;;;;;;;3.85;1.23;;;;;;;-22.80;79.77;101035.47;10445969;28;20041;-65
2024/01/04 15:58:26;;;;;;;4.90;1.85;;;;;;;-22.93;79.53;101043.78;10446069;28;20041;-65
2024/01/04 16:03:29;;;;;;;4.90;2.42;;;;;;;-22.99;79.79;101050.97;10445498;28;20049;-65
2024/01/04 16:08:31;;;;;;;4.55;1.55;;;;;;;-23.08;79.74;101041.75;10444579;28;20037;-66
2024/01/04 16:13:33;;;;;;;3.20;1.90;;;;;;;-23.23;79.47;101044.97;10445324;28;20413;-66
2024/01/04 16:18:36;;;;;;;5.90;2.28;;;;;;;-23.29;79.68;101047.78;10445164;28;20040;-66
2024/01/04 16:23:40;;;;;;;1.05;0.98;;;;;;;-23.35;79.16;101040.22;10444688;28;20041;-66
2024/01/04 16:28:42;;;;;;;5.53;1.70;;;;;;;-23.34;79.54;101062.69;10443530;28;20049;-66
2024/01/04 16:33:47;;;;;;;7.28;2.47;;;;;;;-23.37;79.62;101050.66;10443879;28;20040;-66
2024/01/04 16:38:49;;;;;;;2.85;1.30;;;;;;;-23.37;79.76;101063.66;10443857;28;20429;-66
2024/01/04 16:43:54;;;;;;;0.73;0.70;;;;;;;-23.39;79.11;101064.63;10443754;28;20049;-65
2024/01/04 16:48:57;;;;;;;5.95;2.33;;;;;;;-23.54;78.89;101055.63;10444025;28;20461;-65
2024/01/04 16:53:59;;;;;;;3.20;0.93;;;;;;;-23.57;79.40;101054.03;10444103;28;20048;-66
2024/01/04 16:59:01;;;;;;;2.58;1.38;;;;;;;-23.55;78.28;101059.97;10441865;28;20044;-65
2024/01/04 17:04:24;;;;;;;1.05;1.02;;;;;;;-23.50;78.64;101058.94;10441287;28;20038;-65
2024/01/04 17:09:26;;;;;;;0.93;0.93;;;;;;;-23.43;78.26;101058.66;10444803;28;20037;-66
2024/01/04 17:14:28;;;;;;;2.35;0.93;;;;;;;-23.40;78.14;101066.38;10426353;28;20034;-65
2024/01/04 17:19:31;;;;;;;6.97;3.97;;;;;;;-23.42;78.44;101065.56;10439936;28;20033;-67
2024/01/04 17:24:33;;;;;;;8.40;3.58;;;;;;;-23.46;78.72;101065.72;10430836;28;20417;-68
2024/01/04 17:29:35;;;;;;;6.32;3.45;;;;;;;-23.46;78.13;101065.72;10442845;28;20038;-66
2024/01/04 17:34:38;;;;;;;7.05;3.50;;;;;;;-23.49;78.00;101060.66;10418353;28;20037;-66
2024/01/04 17:39:40;;;;;;;7.30;2.50;;;;;;;-23.41;78.81;101049.09;10416217;28;20057;-66
2024/01/04 17:44:44;;;;;;;1.45;1.35;;;;;;;-23.35;78.09;101043.66;10418084;28;20137;-66
2024/01/04 17:49:47;;;;;;;5.03;2.63;;;;;;;-23.32;78.54;101068.66;10418198;28;20041;-66
2024/01/04 17:54:50;;;;;;;1.73;1.25;;;;;;;-23.29;78.62;101055.56;10417885;28;20042;-67
2024/01/04 17:59:52;;;;;;;1.98;1.35;;;;;;;-23.20;78.48;101051.78;10413081;28;20042;-65
2024/01/04 18:04:55;;;;;;;3.35;1.67;;;;;;;-23.22;78.90;101055.28;10424489;28;20041;-68
2024/01/04 18:09:57;;;;;;;0.70;0.70;;;;;;;-23.24;78.45;101069.25;10418197;28;20044;-67
2024/01/04 18:15:00;;;;;;;2.63;0.85;;;;;;;-23.18;78.43;101065.56;10396621;28;20417;-65
2024/01/04 18:20:05;;;;;;;1.50;1.17;;;;;;;-23.23;78.65;101066.59;10434253;28;20034;-66
2024/01/04 18:25:07;;;;;;;2.05;1.95;;;;;;;-23.23;78.44;101066.59;10434249;28;20068;-67
2024/01/04 18:30:10;;;;;;;0.98;0.95;;;;;;;-23.27;78.60;101069.34;10423625;28;20038;-65
2024/01/04 18:35:12;;;;;;;2.28;1.38;;;;;;;-23.27;78.56;101064.13;10432903;28;20033;-65
2024/01/04 18:40:16;;;;;;;3.03;2.00;;;;;;;-23.29;79.01;101065.94;10435138;28;20034;-69
2024/01/04 18:45:18;;;;;;;0.85;0.85;;;;;;;-23.29;78.65;101077.19;10435411;28;20049;-64
2024/01/04 18:50:23;;;;;;;3.65;1.45;;;;;;;-23.22;78.98;101073.47;10445831;28;20414;-64
2024/01/04 18:55:31;;;;;;;0.98;0.88;;;;;;;-23.17;79.29;101065.50;10446279;28;20044;-65
2024/01/04 19:00:33;;;;;;;2.17;1.20;;;;;;;-23.10;78.67;101058.31;10436031;28;20037;-65
2024/01/04 19:05:49;;;;;;;1.08;0.85;;;;;;;-23.12;78.85;101071.38;10403715;28;20045;-65
2024/01/04 19:10:55;;;;;;;1.50;0.70;;;;;;;-23.02;78.91;101080.53;10412670;28;20046;-65
2024/01/04 19:15:58;;;;;;;1.33;0.82;;;;;;;-23.03;78.46;101071.03;10442666;28;20052;-64
2024/01/04 19:21:01;;;;;;;0.98;0.75;;;;;;;-23.03;78.78;101068.44;10445092;28;20041;-65
2024/01/04 19:26:09;;;;;;;1.58;0.50;;;;;;;-23.00;79.08;101070.06;10442373;28;20041;-68
2024/01/04 19:31:12;;;;;;;4.82;1.52;;;;;;;-23.02;79.38;101077.91;10427260;28;20410;-63
2024/01/04 19:36:14;;;;;;;4.82;1.92;;;;;;;-23.02;79.16;101070.13;10433362;28;20041;-66
2024/01/04 19:41:18;;;;;;;3.42;2.25;;;;;;;-22.99;79.42;101066.56;10442544;28;20037;-74
2024/01/04 19:46:21;;;;;;;2.45;1.85;;;;;;;-22.96;78.97;101062.09;10429630;28;20045;-74
2024/01/04 19:51:23;;;;;;;2.55;2.28;;;;;;;-22.95;78.74;101058.59;10429781;28;20505;-75
2024/01/04 19:56:27;;;;;;;0.90;0.85;;;;;;;-22.95;78.61;101071.56;10435856;28;20044;-76
2024/01/04 20:01:29;;;;;;;2.47;1.40;;;;;;;-22.95;78.05;101066.38;10419692;28;20045;-73
2024/01/04 20:06:31;;;;;;;1.58;0.88;;;;;;;-22.96;78.30;101066.44;10437509;28;20540;-75
2024/01/04 20:11:35;;;;;;;0.73;0.73;;;;;;;-22.95;78.42;101058.59;10422422;28;21403;-74
2024/01/04 20:16:38;;;;;;;3.03;2.50;;;;;;;-22.95;78.22;101066.38;10439912;28;20048;-73
2024/01/04 20:21:41;;;;;;;5.05;1.95;;;;;;;-22.95;77.99;101070.72;10411702;28;20451;-68
2024/01/04 20:26:45;;;;;;;3.85;2.13;;;;;;;-22.94;77.89;101065.47;10433893;28;20047;-70
2024/01/04 20:31:47;;;;;;;3.47;1.83;;;;;;;-22.97;77.64;101075.97;10436593;28;20577;-71
2024/01/04 20:36:54;;;;;;;2.92;1.35;;;;;;;-22.86;76.85;101066.94;10432164;28;20399;-71
2024/01/04 20:41:56;;;;;;;1.42;1.33;;;;;;;-22.84;76.66;101059.94;10432870;28;20045;-67
2024/01/04 20:46:59;;;;;;;1.85;1.33;;;;;;;-22.80;76.35;101056.28;10431016;28;20438;-68
2024/01/04 20:52:02;;;;;;;5.63;2.13;;;;;;;-22.84;76.03;101052.97;10426661;28;20061;-66
2024/01/04 20:57:04;;;;;;;3.65;1.75;;;;;;;-22.90;76.13;101058.44;10437612;28;20068;-66
2024/01/04 21:02:07;;;;;;;2.50;1.85;;;;;;;-22.95;75.38;101052.53;10440947;28;20049;-67
2024/01/04 21:07:10;;;;;;;0.93;0.93;;;;;;;-22.91;75.18;101052.34;10433906;28;20048;-65
2024/01/04 21:12:13;;;;;;;1.85;1.65;;;;;;;-22.95;75.04;101048.19;10437430;28;20049;-66
2024/01/04 21:17:16;;;;;;;0.82;0.77;;;;;;;-22.96;75.28;101045.66;10417558;28;20041;-66
2024/01/04 21:22:18;;;;;;;1.25;1.15;;;;;;;-22.86;74.73;101039.22;10430831;28;20038;-67
2024/01/04 21:27:24;;;;;;;5.63;3.05;;;;;;;-22.85;74.33;101035.69;10429701;28;20844;-67
2024/01/04 21:32:26;;;;;;;6.63;3.55;;;;;;;-22.82;73.78;101026.94;10421000;28;20029;-67
2024/01/04 21:37:29;;;;;;;5.40;2.95;;;;;;;-22.82;73.37;101022.59;10417150;28;20044;-68
2024/01/04 21:42:36;;;;;;;5.63;3.15;;;;;;;-22.76;73.94;101031.84;10419884;28;20111;-67
2024/01/04 21:47:45;;;;;;;4.70;2.85;;;;;;;-22.72;73.28;101020.44;10431041;28;20053;-66
2024/01/04 21:52:49;;;;;;;5.68;3.03;;;;;;;-22.74;73.27;101017.03;10424686;28;20055;-65
2024/01/04 21:57:51;;;;;;;1.48;1.17;;;;;;;-22.74;73.30;101014.44;10420776;28;20049;-68
2024/01/04 22:03:14;;;;;;;3.20;1.65;;;;;;;-22.59;73.40;101011.22;10437884;28;20112;-65
2024/01/04 22:08:16;;;;;;;3.20;1.58;;;;;;;-22.50;73.29;101007.41;10407640;28;20060;-67
2024/01/04 22:13:19;;;;;;;5.72;2.70;;;;;;;-22.40;73.09;101009.56;10419478;28;20041;-64
2024/01/04 22:18:21;;;;;;;1.77;0.73;;;;;;;-22.38;73.49;101002.56;10443997;28;20037;-65
2024/01/04 22:23:23;;;;;;;2.17;1.60;;;;;;;-22.11;73.32;101010.09;10441774;28;20033;-65
2024/01/04 22:28:26;;;;;;;5.00;2.55;;;;;;;-22.14;74.12;101010.25;10436081;28;20034;-65
2024/01/04 22:33:28;;;;;;;4.05;2.38;;;;;;;-22.20;74.28;101015.72;10445888;28;20540;-65
2024/01/04 22:38:31;;;;;;;6.30;2.63;;;;;;;-22.09;74.32;101009.13;10443388;28;20034;-66
2024/01/04 22:43:33;;;;;;;3.13;2.13;;;;;;;-22.09;73.80;101010.88;10447424;28;20037;-65
2024/01/04 22:48:36;;;;;;;2.20;0.95;;;;;;;-22.16;73.79;101012.06;10432132;28;20045;-66
2024/01/04 22:53:38;;;;;;;2.15;1.88;;;;;;;-22.19;73.62;101018.25;10434936;28;20053;-65
2024/01/04 22:58:40;;;;;;;4.95;2.08;;;;;;;-22.15;74.02;101006.78;10419797;28;20033;-65